sensor_id;sensor_type;location;lat;lon;timestamp;P1;durP1;ratioP1;P2;durP2;ratioP2
41139;SDS011;26881;48.784;9.192;2022-12-08T00:02:40;13.20;;;8.40;;
41139;SDS011;26881;48.784;9.192;2022-12-08T00:08:05;13.40;;;8.77;;
41139;SDS011;26881;48.784;9.192;2022-12-08T00:13:45;11.97;;;9.10;;
41139;SDS011;26881;48.784;9.192;2022-12-08T00:19:07;9.13;;;7.90;;
41139;SDS011;26881;48.784;9.192;2022-12-08T00:24:29;10.97;;;8.27;;
41139;SDS011;26881;48.784;9.192;2022-12-08T00:29:53;10.67;;;8.50;;
41139;SDS011;26881;48.784;9.192;2022-12-08T00:35:14;10.90;;;8.33;;
41139;SDS011;26881;48.784;9.192;2022-12-08T00:40:36;10.57;;;8.00;;
41139;SDS011;26881;48.784;9.192;2022-12-08T00:45:58;10.80;;;8.50;;
41139;SDS011;26881;48.784;9.192;2022-12-08T00:51:20;9.83;;;8.07;;
41139;SDS011;26881;48.784;9.192;2022-12-08T00:56:41;10.83;;;8.60;;
41139;SDS011;26881;48.784;9.192;2022-12-08T01:02:03;11.77;;;8.50;;
41139;SDS011;26881;48.784;9.192;2022-12-08T01:07:25;11.13;;;8.37;;
41139;SDS011;26881;48.784;9.192;2022-12-08T01:12:46;12.63;;;8.10;;
41139;SDS011;26881;48.784;9.192;2022-12-08T01:18:08;11.13;;;8.10;;
41139;SDS011;26881;48.784;9.192;2022-12-08T01:23:30;11.07;;;8.70;;
41139;SDS011;26881;48.784;9.192;2022-12-08T01:28:52;10.37;;;8.00;;
41139;SDS011;26881;48.784;9.192;2022-12-08T01:34:13;10.67;;;7.70;;
41139;SDS011;26881;48.784;9.192;2022-12-08T01:39:35;9.73;;;8.17;;
41139;SDS011;26881;48.784;9.192;2022-12-08T01:44:58;10.73;;;8.87;;
41139;SDS011;26881;48.784;9.192;2022-12-08T01:50:23;11.87;;;8.53;;
41139;SDS011;26881;48.784;9.192;2022-12-08T01:55:55;8.90;;;7.57;;
41139;SDS011;26881;48.784;9.192;2022-12-08T02:01:23;11.27;;;8.70;;
41139;SDS011;26881;48.784;9.192;2022-12-08T02:06:45;13.20;;;9.00;;
41139;SDS011;26881;48.784;9.192;2022-12-08T02:12:08;11.30;;;8.60;;
41139;SDS011;26881;48.784;9.192;2022-12-08T02:17:53;10.40;;;8.37;;
41139;SDS011;26881;48.784;9.192;2022-12-08T02:30:02;12.37;;;7.97;;
41139;SDS011;26881;48.784;9.192;2022-12-08T02:47:17;10.30;;;7.30;;
41139;SDS011;26881;48.784;9.192;2022-12-08T02:52:41;9.00;;;7.23;;
41139;SDS011;26881;48.784;9.192;2022-12-08T02:58:13;12.73;;;7.90;;
41139;SDS011;26881;48.784;9.192;2022-12-08T03:09:50;9.27;;;7.43;;
41139;SDS011;26881;48.784;9.192;2022-12-08T03:15:17;9.73;;;7.77;;
41139;SDS011;26881;48.784;9.192;2022-12-08T03:20:40;9.93;;;7.33;;
41139;SDS011;26881;48.784;9.192;2022-12-08T03:26:08;8.93;;;7.03;;
41139;SDS011;26881;48.784;9.192;2022-12-08T03:31:40;9.30;;;7.47;;
41139;SDS011;26881;48.784;9.192;2022-12-08T03:37:07;11.57;;;7.90;;
41139;SDS011;26881;48.784;9.192;2022-12-08T03:42:29;10.17;;;7.43;;
41139;SDS011;26881;48.784;9.192;2022-12-08T03:47:51;11.23;;;7.80;;
41139;SDS011;26881;48.784;9.192;2022-12-08T03:53:13;10.00;;;8.00;;
41139;SDS011;26881;48.784;9.192;2022-12-08T03:58:35;11.83;;;7.60;;
41139;SDS011;26881;48.784;9.192;2022-12-08T04:03:58;9.57;;;8.00;;
41139;SDS011;26881;48.784;9.192;2022-12-08T04:09:20;10.97;;;8.37;;
41139;SDS011;26881;48.784;9.192;2022-12-08T04:14:41;8.47;;;7.57;;
41139;SDS011;26881;48.784;9.192;2022-12-08T04:20:03;11.03;;;8.00;;
41139;SDS011;26881;48.784;9.192;2022-12-08T04:25:26;8.63;;;7.30;;
41139;SDS011;26881;48.784;9.192;2022-12-08T04:30:48;13.70;;;7.80;;
41139;SDS011;26881;48.784;9.192;2022-12-08T04:36:10;10.23;;;8.07;;
41139;SDS011;26881;48.784;9.192;2022-12-08T04:41:32;10.63;;;7.50;;
41139;SDS011;26881;48.784;9.192;2022-12-08T04:46:54;11.30;;;7.83;;
41139;SDS011;26881;48.784;9.192;2022-12-08T04:52:15;11.67;;;8.53;;
41139;SDS011;26881;48.784;9.192;2022-12-08T04:57:37;12.27;;;8.40;;
41139;SDS011;26881;48.784;9.192;2022-12-08T05:02:59;9.63;;;7.13;;
41139;SDS011;26881;48.784;9.192;2022-12-08T05:08:21;10.83;;;8.50;;
41139;SDS011;26881;48.784;9.192;2022-12-08T05:13:42;11.27;;;8.27;;
41139;SDS011;26881;48.784;9.192;2022-12-08T05:19:04;15.40;;;8.00;;
41139;SDS011;26881;48.784;9.192;2022-12-08T05:24:26;9.53;;;8.00;;
41139;SDS011;26881;48.784;9.192;2022-12-08T05:29:48;12.90;;;8.00;;
41139;SDS011;26881;48.784;9.192;2022-12-08T05:35:10;12.23;;;7.80;;
41139;SDS011;26881;48.784;9.192;2022-12-08T05:40:32;10.10;;;7.00;;
41139;SDS011;26881;48.784;9.192;2022-12-08T05:45:54;11.37;;;7.50;;
41139;SDS011;26881;48.784;9.192;2022-12-08T05:51:19;10.07;;;7.60;;
41139;SDS011;26881;48.784;9.192;2022-12-08T05:56:42;9.87;;;7.90;;
41139;SDS011;26881;48.784;9.192;2022-12-08T06:02:04;10.97;;;7.70;;
41139;SDS011;26881;48.784;9.192;2022-12-08T06:07:26;10.60;;;7.27;;
41139;SDS011;26881;48.784;9.192;2022-12-08T06:12:48;12.23;;;8.07;;
41139;SDS011;26881;48.784;9.192;2022-12-08T06:18:10;13.23;;;7.73;;
41139;SDS011;26881;48.784;9.192;2022-12-08T06:23:32;11.33;;;7.77;;
41139;SDS011;26881;48.784;9.192;2022-12-08T06:28:54;10.87;;;7.70;;
41139;SDS011;26881;48.784;9.192;2022-12-08T06:34:15;10.10;;;7.27;;
41139;SDS011;26881;48.784;9.192;2022-12-08T06:39:37;11.90;;;7.13;;
41139;SDS011;26881;48.784;9.192;2022-12-08T06:44:59;10.10;;;7.33;;
41139;SDS011;26881;48.784;9.192;2022-12-08T06:50:21;11.03;;;6.73;;
41139;SDS011;26881;48.784;9.192;2022-12-08T06:55:47;8.93;;;6.57;;
41139;SDS011;26881;48.784;9.192;2022-12-08T07:01:20;11.80;;;6.90;;
41139;SDS011;26881;48.784;9.192;2022-12-08T07:06:42;12.10;;;7.50;;
41139;SDS011;26881;48.784;9.192;2022-12-08T07:12:04;12.67;;;7.67;;
41139;SDS011;26881;48.784;9.192;2022-12-08T07:17:26;11.10;;;7.50;;
41139;SDS011;26881;48.784;9.192;2022-12-08T07:22:48;11.13;;;7.67;;
41139;SDS011;26881;48.784;9.192;2022-12-08T07:28:13;14.70;;;8.23;;
41139;SDS011;26881;48.784;9.192;2022-12-08T07:33:35;10.03;;;6.57;;
41139;SDS011;26881;48.784;9.192;2022-12-08T07:38:57;14.50;;;7.37;;
41139;SDS011;26881;48.784;9.192;2022-12-08T07:44:18;10.97;;;6.93;;
41139;SDS011;26881;48.784;9.192;2022-12-08T07:49:40;13.90;;;7.27;;
41139;SDS011;26881;48.784;9.192;2022-12-08T07:55:02;9.20;;;7.10;;
41139;SDS011;26881;48.784;9.192;2022-12-08T08:00:24;12.67;;;6.97;;
41139;SDS011;26881;48.784;9.192;2022-12-08T08:05:46;11.50;;;7.33;;
41139;SDS011;26881;48.784;9.192;2022-12-08T08:11:09;12.33;;;7.47;;
41139;SDS011;26881;48.784;9.192;2022-12-08T08:16:41;9.70;;;6.60;;
41139;SDS011;26881;48.784;9.192;2022-12-08T08:22:07;9.93;;;7.13;;
41139;SDS011;26881;48.784;9.192;2022-12-08T08:27:29;9.43;;;7.43;;
41139;SDS011;26881;48.784;9.192;2022-12-08T08:32:50;10.57;;;7.67;;
41139;SDS011;26881;48.784;9.192;2022-12-08T08:38:12;9.30;;;7.23;;
41139;SDS011;26881;48.784;9.192;2022-12-08T08:43:34;11.43;;;7.80;;
41139;SDS011;26881;48.784;9.192;2022-12-08T08:48:59;12.67;;;7.80;;
41139;SDS011;26881;48.784;9.192;2022-12-08T08:54:21;11.73;;;7.50;;
41139;SDS011;26881;48.784;9.192;2022-12-08T08:59:43;11.43;;;7.63;;
41139;SDS011;26881;48.784;9.192;2022-12-08T09:05:05;12.43;;;8.57;;
41139;SDS011;26881;48.784;9.192;2022-12-08T09:10:27;14.23;;;8.70;;
41139;SDS011;26881;48.784;9.192;2022-12-08T09:15:49;12.70;;;8.87;;
41139;SDS011;26881;48.784;9.192;2022-12-08T09:21:12;11.33;;;8.87;;
41139;SDS011;26881;48.784;9.192;2022-12-08T09:26:36;14.53;;;9.37;;
41139;SDS011;26881;48.784;9.192;2022-12-08T09:31:58;13.83;;;10.23;;
41139;SDS011;26881;48.784;9.192;2022-12-08T09:37:20;19.00;;;10.93;;
41139;SDS011;26881;48.784;9.192;2022-12-08T09:42:52;26.80;;;11.23;;
41139;SDS011;26881;48.784;9.192;2022-12-08T09:48:18;16.43;;;10.33;;
41139;SDS011;26881;48.784;9.192;2022-12-08T09:53:45;23.37;;;10.67;;
41139;SDS011;26881;48.784;9.192;2022-12-08T09:59:21;15.50;;;10.37;;
41139;SDS011;26881;48.784;9.192;2022-12-08T10:04:45;14.37;;;10.33;;
41139;SDS011;26881;48.784;9.192;2022-12-08T10:16:07;17.40;;;7.47;;
41139;SDS011;26881;48.784;9.192;2022-12-08T10:21:33;10.47;;;6.63;;
41139;SDS011;26881;48.784;9.192;2022-12-08T10:26:55;9.70;;;6.67;;
41139;SDS011;26881;48.784;9.192;2022-12-08T10:32:19;7.70;;;6.10;;
41139;SDS011;26881;48.784;9.192;2022-12-08T10:37:56;8.23;;;6.37;;
41139;SDS011;26881;48.784;9.192;2022-12-08T10:43:25;9.17;;;6.60;;
41139;SDS011;26881;48.784;9.192;2022-12-08T10:48:49;12.20;;;6.53;;
41139;SDS011;26881;48.784;9.192;2022-12-08T10:54:29;11.10;;;6.67;;
41139;SDS011;26881;48.784;9.192;2022-12-08T10:59:54;10.87;;;6.50;;
41139;SDS011;26881;48.784;9.192;2022-12-08T11:05:19;11.00;;;6.13;;
41139;SDS011;26881;48.784;9.192;2022-12-08T11:10:43;7.70;;;5.77;;
41139;SDS011;26881;48.784;9.192;2022-12-08T11:16:05;7.70;;;5.30;;
41139;SDS011;26881;48.784;9.192;2022-12-08T11:21:35;9.37;;;5.57;;
41139;SDS011;26881;48.784;9.192;2022-12-08T11:27:01;7.00;;;5.50;;
41139;SDS011;26881;48.784;9.192;2022-12-08T11:32:24;8.03;;;5.17;;
41139;SDS011;26881;48.784;9.192;2022-12-08T11:37:46;6.80;;;5.53;;
41139;SDS011;26881;48.784;9.192;2022-12-08T11:43:16;9.97;;;5.40;;
41139;SDS011;26881;48.784;9.192;2022-12-08T11:48:43;7.57;;;5.43;;
41139;SDS011;26881;48.784;9.192;2022-12-08T11:54:22;11.47;;;5.23;;
41139;SDS011;26881;48.784;9.192;2022-12-08T11:59:48;8.80;;;5.33;;
41139;SDS011;26881;48.784;9.192;2022-12-08T12:05:31;11.27;;;5.20;;
41139;SDS011;26881;48.784;9.192;2022-12-08T12:11:49;6.47;;;4.33;;
41139;SDS011;26881;48.784;9.192;2022-12-08T12:34:37;8.20;;;4.20;;
41139;SDS011;26881;48.784;9.192;2022-12-08T12:40:21;5.27;;;3.90;;
41139;SDS011;26881;48.784;9.192;2022-12-08T12:45:46;6.37;;;4.30;;
41139;SDS011;26881;48.784;9.192;2022-12-08T12:51:33;5.20;;;4.13;;
41139;SDS011;26881;48.784;9.192;2022-12-08T12:57:13;6.40;;;4.53;;
41139;SDS011;26881;48.784;9.192;2022-12-08T13:02:44;4.60;;;4.07;;
41139;SDS011;26881;48.784;9.192;2022-12-08T13:08:20;6.10;;;4.50;;
41139;SDS011;26881;48.784;9.192;2022-12-08T13:13:54;6.43;;;4.20;;
41139;SDS011;26881;48.784;9.192;2022-12-08T13:19:18;6.13;;;4.53;;
41139;SDS011;26881;48.784;9.192;2022-12-08T13:24:41;6.00;;;4.47;;
41139;SDS011;26881;48.784;9.192;2022-12-08T13:36:13;6.20;;;4.50;;
41139;SDS011;26881;48.784;9.192;2022-12-08T13:41:43;7.97;;;4.97;;
41139;SDS011;26881;48.784;9.192;2022-12-08T13:47:13;9.40;;;4.77;;
41139;SDS011;26881;48.784;9.192;2022-12-08T13:53:08;6.40;;;4.60;;
41139;SDS011;26881;48.784;9.192;2022-12-08T14:04:42;7.13;;;4.30;;
41139;SDS011;26881;48.784;9.192;2022-12-08T14:10:26;6.43;;;4.77;;
41139;SDS011;26881;48.784;9.192;2022-12-08T14:15:50;7.10;;;4.70;;
41139;SDS011;26881;48.784;9.192;2022-12-08T14:21:12;6.83;;;4.70;;
41139;SDS011;26881;48.784;9.192;2022-12-08T14:26:42;7.80;;;5.43;;
41139;SDS011;26881;48.784;9.192;2022-12-08T14:32:21;9.63;;;5.43;;
41139;SDS011;26881;48.784;9.192;2022-12-08T14:38:11;7.70;;;6.30;;
41139;SDS011;26881;48.784;9.192;2022-12-08T14:43:34;12.17;;;6.63;;
41139;SDS011;26881;48.784;9.192;2022-12-08T14:48:56;8.43;;;5.57;;
41139;SDS011;26881;48.784;9.192;2022-12-08T14:54:19;7.17;;;5.13;;
41139;SDS011;26881;48.784;9.192;2022-12-08T14:59:41;7.20;;;4.60;;
41139;SDS011;26881;48.784;9.192;2022-12-08T15:05:05;7.37;;;4.60;;
41139;SDS011;26881;48.784;9.192;2022-12-08T15:10:32;9.73;;;4.83;;
41139;SDS011;26881;48.784;9.192;2022-12-08T15:15:58;6.40;;;4.23;;
41139;SDS011;26881;48.784;9.192;2022-12-08T15:21:20;8.50;;;5.90;;
41139;SDS011;26881;48.784;9.192;2022-12-08T15:26:56;9.87;;;5.60;;
41139;SDS011;26881;48.784;9.192;2022-12-08T15:32:19;5.90;;;4.27;;
41139;SDS011;26881;48.784;9.192;2022-12-08T15:37:43;6.77;;;3.90;;
41139;SDS011;26881;48.784;9.192;2022-12-08T15:43:07;6.13;;;3.93;;
41139;SDS011;26881;48.784;9.192;2022-12-08T15:48:31;6.43;;;4.70;;
41139;SDS011;26881;48.784;9.192;2022-12-08T15:53:53;6.73;;;4.57;;
41139;SDS011;26881;48.784;9.192;2022-12-08T15:59:19;6.30;;;4.40;;
41139;SDS011;26881;48.784;9.192;2022-12-08T16:04:42;6.57;;;4.23;;
41139;SDS011;26881;48.784;9.192;2022-12-08T16:10:25;6.93;;;4.60;;
41139;SDS011;26881;48.784;9.192;2022-12-08T16:16:06;6.70;;;4.90;;
41139;SDS011;26881;48.784;9.192;2022-12-08T16:21:31;8.43;;;5.50;;
41139;SDS011;26881;48.784;9.192;2022-12-08T16:27:19;8.07;;;5.73;;
41139;SDS011;26881;48.784;9.192;2022-12-08T16:33:01;7.27;;;5.23;;
41139;SDS011;26881;48.784;9.192;2022-12-08T16:38:23;9.03;;;5.40;;
41139;SDS011;26881;48.784;9.192;2022-12-08T16:43:45;7.90;;;5.13;;
41139;SDS011;26881;48.784;9.192;2022-12-08T16:49:07;9.20;;;6.10;;
41139;SDS011;26881;48.784;9.192;2022-12-08T16:54:29;10.03;;;6.07;;
41139;SDS011;26881;48.784;9.192;2022-12-08T16:59:51;8.17;;;5.57;;
41139;SDS011;26881;48.784;9.192;2022-12-08T17:05:14;8.93;;;5.70;;
41139;SDS011;26881;48.784;9.192;2022-12-08T17:10:37;7.43;;;5.43;;
41139;SDS011;26881;48.784;9.192;2022-12-08T17:16:00;10.10;;;5.80;;
41139;SDS011;26881;48.784;9.192;2022-12-08T17:21:23;8.17;;;5.90;;
41139;SDS011;26881;48.784;9.192;2022-12-08T17:26:45;10.40;;;5.17;;
41139;SDS011;26881;48.784;9.192;2022-12-08T17:32:07;7.83;;;5.83;;
41139;SDS011;26881;48.784;9.192;2022-12-08T17:37:29;8.77;;;5.87;;
41139;SDS011;26881;48.784;9.192;2022-12-08T17:42:50;8.17;;;5.97;;
41139;SDS011;26881;48.784;9.192;2022-12-08T17:48:13;10.37;;;6.20;;
41139;SDS011;26881;48.784;9.192;2022-12-08T17:53:35;9.97;;;6.50;;
41139;SDS011;26881;48.784;9.192;2022-12-08T17:59:01;7.77;;;5.73;;
41139;SDS011;26881;48.784;9.192;2022-12-08T18:04:24;7.03;;;5.47;;
41139;SDS011;26881;48.784;9.192;2022-12-08T18:09:46;11.80;;;7.10;;
41139;SDS011;26881;48.784;9.192;2022-12-08T18:15:10;10.87;;;7.13;;
41139;SDS011;26881;48.784;9.192;2022-12-08T18:20:36;9.23;;;6.30;;
41139;SDS011;26881;48.784;9.192;2022-12-08T18:25:58;11.23;;;6.13;;
41139;SDS011;26881;48.784;9.192;2022-12-08T18:31:20;9.73;;;6.17;;
41139;SDS011;26881;48.784;9.192;2022-12-08T18:36:43;12.10;;;7.23;;
41139;SDS011;26881;48.784;9.192;2022-12-08T18:42:05;9.30;;;6.63;;
41139;SDS011;26881;48.784;9.192;2022-12-08T18:47:45;10.70;;;6.67;;
41139;SDS011;26881;48.784;9.192;2022-12-08T18:53:07;10.07;;;7.07;;
41139;SDS011;26881;48.784;9.192;2022-12-08T18:58:29;8.60;;;6.53;;
41139;SDS011;26881;48.784;9.192;2022-12-08T19:03:51;8.63;;;6.57;;
41139;SDS011;26881;48.784;9.192;2022-12-08T19:09:32;9.70;;;6.50;;
41139;SDS011;26881;48.784;9.192;2022-12-08T19:14:54;11.83;;;6.67;;
41139;SDS011;26881;48.784;9.192;2022-12-08T19:20:17;10.43;;;6.67;;
41139;SDS011;26881;48.784;9.192;2022-12-08T19:25:39;10.23;;;7.47;;
41139;SDS011;26881;48.784;9.192;2022-12-08T19:31:07;11.37;;;6.47;;
41139;SDS011;26881;48.784;9.192;2022-12-08T19:36:30;11.10;;;6.83;;
41139;SDS011;26881;48.784;9.192;2022-12-08T19:41:55;8.67;;;6.40;;
41139;SDS011;26881;48.784;9.192;2022-12-08T19:47:36;8.33;;;6.30;;
41139;SDS011;26881;48.784;9.192;2022-12-08T19:52:59;9.90;;;6.80;;
41139;SDS011;26881;48.784;9.192;2022-12-08T19:58:21;9.97;;;6.37;;
41139;SDS011;26881;48.784;9.192;2022-12-08T20:03:43;9.77;;;6.00;;
41139;SDS011;26881;48.784;9.192;2022-12-08T20:09:05;7.10;;;5.83;;
41139;SDS011;26881;48.784;9.192;2022-12-08T20:14:27;7.70;;;5.57;;
41139;SDS011;26881;48.784;9.192;2022-12-08T20:19:49;6.97;;;5.47;;
41139;SDS011;26881;48.784;9.192;2022-12-08T20:25:11;7.90;;;5.30;;
41139;SDS011;26881;48.784;9.192;2022-12-08T20:30:34;9.07;;;5.40;;
41139;SDS011;26881;48.784;9.192;2022-12-08T20:35:59;7.23;;;5.50;;
41139;SDS011;26881;48.784;9.192;2022-12-08T20:41:23;7.07;;;4.90;;
41139;SDS011;26881;48.784;9.192;2022-12-08T20:46:45;5.63;;;4.67;;
41139;SDS011;26881;48.784;9.192;2022-12-08T20:52:10;6.87;;;5.10;;
41139;SDS011;26881;48.784;9.192;2022-12-08T20:57:32;7.03;;;5.13;;
41139;SDS011;26881;48.784;9.192;2022-12-08T21:02:54;6.17;;;4.93;;
41139;SDS011;26881;48.784;9.192;2022-12-08T21:08:17;8.70;;;5.50;;
41139;SDS011;26881;48.784;9.192;2022-12-08T21:13:40;9.30;;;4.93;;
41139;SDS011;26881;48.784;9.192;2022-12-08T21:19:03;7.83;;;4.63;;
41139;SDS011;26881;48.784;9.192;2022-12-08T21:24:26;6.47;;;4.23;;
41139;SDS011;26881;48.784;9.192;2022-12-08T21:29:55;7.90;;;5.23;;
41139;SDS011;26881;48.784;9.192;2022-12-08T21:35:17;5.20;;;4.70;;
41139;SDS011;26881;48.784;9.192;2022-12-08T21:40:39;6.93;;;5.40;;
41139;SDS011;26881;48.784;9.192;2022-12-08T21:46:01;7.13;;;5.50;;
41139;SDS011;26881;48.784;9.192;2022-12-08T21:51:22;12.03;;;6.43;;
41139;SDS011;26881;48.784;9.192;2022-12-08T21:56:46;7.47;;;5.80;;
41139;SDS011;26881;48.784;9.192;2022-12-08T22:02:10;8.20;;;5.80;;
41139;SDS011;26881;48.784;9.192;2022-12-08T22:07:39;7.07;;;5.57;;
41139;SDS011;26881;48.784;9.192;2022-12-08T22:13:01;8.37;;;5.73;;
41139;SDS011;26881;48.784;9.192;2022-12-08T22:18:23;9.27;;;6.13;;
41139;SDS011;26881;48.784;9.192;2022-12-08T22:23:46;8.93;;;6.10;;
41139;SDS011;26881;48.784;9.192;2022-12-08T22:29:08;10.00;;;6.17;;
41139;SDS011;26881;48.784;9.192;2022-12-08T22:34:30;11.30;;;6.13;;
41139;SDS011;26881;48.784;9.192;2022-12-08T22:39:52;8.33;;;5.57;;
41139;SDS011;26881;48.784;9.192;2022-12-08T22:45:13;12.53;;;7.20;;
41139;SDS011;26881;48.784;9.192;2022-12-08T22:50:35;10.53;;;7.27;;
41139;SDS011;26881;48.784;9.192;2022-12-08T22:55:57;11.50;;;8.83;;
41139;SDS011;26881;48.784;9.192;2022-12-08T23:01:26;14.87;;;9.40;;
41139;SDS011;26881;48.784;9.192;2022-12-08T23:06:50;14.57;;;8.63;;
41139;SDS011;26881;48.784;9.192;2022-12-08T23:12:12;11.83;;;8.13;;
41139;SDS011;26881;48.784;9.192;2022-12-08T23:17:34;12.53;;;7.57;;
41139;SDS011;26881;48.784;9.192;2022-12-08T23:22:56;12.17;;;7.37;;
41139;SDS011;26881;48.784;9.192;2022-12-08T23:28:18;11.57;;;7.63;;
41139;SDS011;26881;48.784;9.192;2022-12-08T23:33:40;11.63;;;7.77;;
41139;SDS011;26881;48.784;9.192;2022-12-08T23:39:02;11.43;;;7.57;;
41139;SDS011;26881;48.784;9.192;2022-12-08T23:44:25;16.47;;;8.70;;
41139;SDS011;26881;48.784;9.192;2022-12-08T23:49:46;14.27;;;9.73;;
41139;SDS011;26881;48.784;9.192;2022-12-08T23:55:09;13.23;;;9.53;;
